Time;durP1;ratioP1;P1;durP2;ratioP2;P2;SDS_P1;SDS_P2;PMS_P1;PMS_P2;Temp;Humidity;BMP_temperature;BMP_pressure;BME280_temperature;BME280_humidity;BME280_pressure;Samples;Min_cycle;Max_cycle;Signal;HPM_P1;HPM_P2
2022/07/19 00:01:26;;;;;;;5.40;3.83;;;18.50;60.00;;;;;;5055589;28;20486;-64
2022/07/19 00:03:56;;;;;;;9.00;4.37;;;18.40;60.70;;;;;;5056461;28;20460;-64
2022/07/19 00:06:24;;;;;;;8.83;5.50;;;18.30;60.80;;;;;;5075735;28;20783;-64
2022/07/19 00:08:51;;;;;;;5.67;4.07;;;18.30;61.00;;;;;;5074223;28;20451;-65
2022/07/19 00:11:23;;;;;;;5.40;3.63;;;18.30;61.60;;;;;;5055484;28;20436;-64
2022/07/19 00:13:50;;;;;;;5.93;3.87;;;18.30;61.40;;;;;;5055464;28;20441;-65
2022/07/19 00:16:18;;;;;;;6.70;4.60;;;18.30;61.10;;;;;;5055447;28;20502;-65
2022/07/19 00:18:45;;;;;;;6.30;4.40;;;18.40;61.20;;;;;;5055614;28;20522;-65
2022/07/19 00:21:14;;;;;;;5.73;3.77;;;18.40;61.30;;;;;;5073381;28;20486;-64
2022/07/19 00:23:43;;;;;;;6.73;5.40;;;18.30;60.90;;;;;;5064765;28;20494;-65
2022/07/19 00:26:12;;;;;;;7.30;3.90;;;18.20;61.50;;;;;;5055360;28;20437;-65
2022/07/19 00:28:39;;;;;;;6.53;4.47;;;18.20;61.70;;;;;;5063942;28;20498;-65
2022/07/19 00:31:08;;;;;;;8.63;4.77;;;18.20;61.80;;;;;;5075057;28;20529;-67
2022/07/19 00:33:38;;;;;;;9.17;4.67;;;18.20;62.00;;;;;;5067003;28;20469;-64
2022/07/19 00:36:32;;;;;;;6.23;4.10;;;18.10;62.10;;;;;;5055249;28;20453;-66
2022/07/19 00:39:01;;;;;;;6.03;3.57;;;18.10;62.60;;;;;;5065204;28;20987;-65
2022/07/19 00:41:40;;;;;;;5.90;3.57;;;18.00;63.50;;;;;;5074599;28;20519;-66
2022/07/19 00:44:08;;;;;;;4.97;4.00;;;17.90;63.50;;;;;;5063746;28;20448;-66
2022/07/19 00:46:51;;;;;;;7.83;3.50;;;17.90;63.90;;;;;;5055018;28;20442;-66
2022/07/19 00:49:18;;;;;;;6.73;4.27;;;17.90;63.80;;;;;;5066584;28;20535;-66
2022/07/19 00:51:52;;;;;;;5.90;4.33;;;17.80;64.90;;;;;;5071699;28;20433;-65
2022/07/19 00:54:23;;;;;;;7.13;4.87;;;17.70;65.00;;;;;;5054436;28;20446;-66
2022/07/19 00:57:06;;;;;;;4.90;3.47;;;17.50;65.20;;;;;;5057182;28;20425;-65
2022/07/19 00:59:35;;;;;;;4.07;3.67;;;17.60;65.60;;;;;;5074739;28;20435;-66
2022/07/19 01:02:05;;;;;;;5.03;3.90;;;17.50;65.90;;;;;;5069647;28;20942;-68
2022/07/19 01:04:36;;;;;;;5.40;3.87;;;17.50;65.60;;;;;;5054914;28;20849;-66
2022/07/19 01:07:08;;;;;;;3.77;3.27;;;17.50;65.80;;;;;;5057466;28;20433;-66
2022/07/19 01:09:38;;;;;;;5.47;3.17;;;17.50;65.90;;;;;;5074791;28;20440;-66
2022/07/19 01:12:12;;;;;;;4.30;3.80;;;17.40;66.50;;;;;;5072685;28;20448;-66
2022/07/19 01:14:44;;;;;;;4.73;3.90;;;17.40;66.10;;;;;;5074286;28;20529;-65
2022/07/19 01:17:15;;;;;;;4.10;2.80;;;17.20;65.60;;;;;;5058159;28;20437;-65
2022/07/19 01:19:44;;;;;;;3.97;3.50;;;17.10;65.80;;;;;;5054737;28;20433;-65
2022/07/19 01:22:13;;;;;;;4.90;3.67;;;17.10;66.80;;;;;;5069906;28;20494;-66
2022/07/19 01:24:43;;;;;;;4.37;3.57;;;17.10;66.80;;;;;;5074110;28;20451;-66
2022/07/19 01:27:11;;;;;;;5.87;3.53;;;17.10;67.00;;;;;;5058743;28;20857;-65
2022/07/19 01:29:39;;;;;;;5.43;3.73;;;17.00;67.70;;;;;;5054076;28;20473;-66
2022/07/19 01:32:07;;;;;;;4.70;3.33;;;17.00;67.70;;;;;;5067349;28;20950;-66
2022/07/19 01:34:36;;;;;;;4.33;3.30;;;16.90;67.60;;;;;;5073942;28;20440;-71
2022/07/19 01:37:05;;;;;;;3.57;3.20;;;16.90;67.10;;;;;;5060415;28;20985;-65
2022/07/19 01:39:34;;;;;;;5.70;3.20;;;16.90;67.40;;;;;;5053930;28;20494;-65
2022/07/19 01:42:02;;;;;;;4.70;3.33;;;16.90;67.80;;;;;;5065599;28;20483;-66
2022/07/19 01:44:30;;;;;;;4.00;3.17;;;16.90;68.10;;;;;;5073899;28;20436;-65
2022/07/19 01:46:59;;;;;;;3.67;3.10;;;16.80;68.00;;;;;;5061522;28;20449;-66
2022/07/19 01:49:26;;;;;;;4.43;3.50;;;16.90;68.00;;;;;;5055456;28;20441;-65
2022/07/19 01:51:58;;;;;;;4.57;3.23;;;16.90;68.00;;;;;;5073407;28;21006;-66
2022/07/19 01:54:30;;;;;;;8.20;4.30;;;16.90;67.90;;;;;;5071937;28;20459;-66
2022/07/19 01:56:59;;;;;;;5.47;3.73;;;16.80;67.70;;;;;;5053625;28;20444;-66
2022/07/19 02:00:10;;;;;;;7.80;4.37;;;16.80;67.80;;;;;;5110194;27;20523;-64
2022/07/19 02:02:42;;;;;;;4.40;3.33;;;16.80;67.90;;;;;;5110350;28;20464;-65
2022/07/19 02:05:14;;;;;;;4.80;3.70;;;16.80;68.20;;;;;;5109982;28;20435;-64
2022/07/19 02:07:44;;;;;;;4.90;3.97;;;16.80;68.30;;;;;;5110604;28;20442;-64
2022/07/19 02:10:11;;;;;;;4.30;3.17;;;16.70;68.50;;;;;;5109970;28;20434;-66
2022/07/19 02:12:39;;;;;;;5.53;3.40;;;16.60;69.30;;;;;;5110273;28;20799;-64
2022/07/19 02:15:10;;;;;;;6.03;4.67;;;16.50;70.50;;;;;;5109938;28;20426;-64
2022/07/19 02:17:39;;;;;;;11.30;4.97;;;16.40;70.90;;;;;;5110257;28;20446;-64
2022/07/19 02:20:13;;;;;;;4.73;3.90;;;16.40;70.80;;;;;;5110232;28;20466;-63
2022/07/19 02:22:41;;;;;;;7.00;5.10;;;16.30;71.30;;;;;;5110352;28;20462;-64
2022/07/19 02:25:10;;;;;;;5.60;4.03;;;16.30;71.30;;;;;;5109217;28;20442;-64
2022/07/19 02:27:37;;;;;;;6.03;4.10;;;16.30;70.90;;;;;;5110143;28;20431;-64
2022/07/19 02:30:06;;;;;;;7.57;5.60;;;16.20;71.30;;;;;;5109744;28;20517;-64
2022/07/19 02:32:36;;;;;;;20.50;14.13;;;16.20;72.20;;;;;;5109385;28;20434;-65
2022/07/19 02:35:04;;;;;;;20.30;11.40;;;16.20;71.80;;;;;;5109913;28;20456;-64
2022/07/19 02:37:32;;;;;;;13.50;10.77;;;16.10;71.70;;;;;;5109750;28;20442;-66
2022/07/19 02:39:59;;;;;;;11.30;9.07;;;16.10;72.60;;;;;;5109600;28;20999;-64
2022/07/19 02:42:29;;;;;;;10.27;6.43;;;16.10;73.00;;;;;;5109187;28;20461;-64
2022/07/19 02:45:01;;;;;;;5.10;4.00;;;16.10;72.90;;;;;;5109100;28;20442;-64
2022/07/19 02:47:33;;;;;;;5.40;3.80;;;16.10;73.20;;;;;;5109872;28;20507;-64
2022/07/19 02:50:01;;;;;;;7.17;4.00;;;16.10;73.20;;;;;;5109341;28;20442;-64
2022/07/19 02:52:34;;;;;;;6.67;4.73;;;16.10;73.00;;;;;;5109561;28;20499;-64
2022/07/19 02:55:15;;;;;;;10.83;7.00;;;16.10;72.90;;;;;;5109269;28;20786;-64
2022/07/19 02:57:44;;;;;;;10.17;6.77;;;16.10;72.70;;;;;;5109116;28;20426;-64
2022/07/19 03:00:15;;;;;;;10.07;6.30;;;16.10;72.70;;;;;;5109210;28;20442;-64
2022/07/19 03:02:45;;;;;;;10.60;5.90;;;16.10;72.60;;;;;;5109498;28;20442;-64
2022/07/19 03:05:13;;;;;;;10.77;6.47;;;16.10;72.60;;;;;;5108627;28;20442;-64
2022/07/19 03:07:42;;;;;;;11.93;6.70;;;16.10;72.60;;;;;;5109150;28;20438;-64
2022/07/19 03:10:10;;;;;;;11.07;7.37;;;16.10;72.40;;;;;;5101443;28;20518;-64
2022/07/19 03:12:37;;;;;;;11.10;6.20;;;16.10;72.30;;;;;;5095489;28;20475;-64
2022/07/19 03:15:10;;;;;;;7.87;5.40;;;16.10;72.30;;;;;;5095005;28;20442;-65
2022/07/19 03:17:43;;;;;;;11.53;6.17;;;16.10;72.00;;;;;;5095807;28;20443;-64
2022/07/19 03:20:13;;;;;;;13.70;8.17;;;16.10;71.90;;;;;;5094761;28;20501;-64
2022/07/19 03:22:49;;;;;;;8.87;5.73;;;16.00;71.70;;;;;;5095110;28;20514;-65
2022/07/19 03:25:19;;;;;;;7.10;5.57;;;16.00;72.00;;;;;;5075178;28;20428;-64
2022/07/19 03:27:48;;;;;;;12.53;5.37;;;16.00;71.50;;;;;;5075295;28;20443;-65
2022/07/19 03:30:15;;;;;;;9.23;5.00;;;15.90;71.60;;;;;;5095164;28;20936;-64
2022/07/19 03:32:47;;;;;;;6.40;3.50;;;15.90;71.50;;;;;;5094978;28;20484;-64
2022/07/19 03:35:16;;;;;;;5.27;3.40;;;15.80;71.50;;;;;;5074805;28;20934;-65
2022/07/19 03:37:46;;;;;;;6.70;4.30;;;15.80;71.80;;;;;;5074816;28;20581;-65
2022/07/19 03:40:13;;;;;;;5.97;4.67;;;15.80;72.20;;;;;;5094251;28;20524;-66
2022/07/19 03:42:40;;;;;;;6.77;5.27;;;15.70;72.20;;;;;;5094338;28;20439;-66
2022/07/19 03:45:09;;;;;;;6.70;5.20;;;15.70;73.30;;;;;;5095035;28;20485;-66
2022/07/19 03:47:37;;;;;;;7.67;4.80;;;15.60;73.50;;;;;;5094646;28;20435;-66
2022/07/19 03:50:05;;;;;;;10.07;4.70;;;15.50;73.80;;;;;;5094767;28;20442;-66
2022/07/19 03:52:34;;;;;;;6.00;3.50;;;15.40;74.30;;;;;;5094741;28;20780;-66
2022/07/19 03:55:02;;;;;;;9.33;6.03;;;15.40;75.10;;;;;;5094633;28;20442;-66
2022/07/19 03:57:29;;;;;;;10.53;5.83;;;15.40;75.30;;;;;;5094086;28;20512;-66
2022/07/19 03:59:57;;;;;;;7.13;6.37;;;15.40;75.80;;;;;;5094274;28;21281;-65
2022/07/19 04:02:26;;;;;;;6.10;4.80;;;15.30;76.20;;;;;;5094438;28;20586;-66
2022/07/19 04:04:53;;;;;;;5.40;3.97;;;15.30;76.20;;;;;;5094698;28;20434;-65
2022/07/19 04:07:20;;;;;;;5.70;4.00;;;15.30;76.20;;;;;;5094050;28;20435;-65
2022/07/19 04:09:49;;;;;;;5.80;4.70;;;15.30;76.00;;;;;;5094581;28;20986;-66
2022/07/19 04:12:16;;;;;;;5.27;4.73;;;15.40;76.40;;;;;;5094034;28;20435;-66
2022/07/19 04:14:45;;;;;;;6.00;4.40;;;15.30;77.10;;;;;;5094142;28;20533;-66
2022/07/19 04:17:12;;;;;;;5.20;3.80;;;15.20;77.10;;;;;;5093585;28;20443;-66
2022/07/19 04:19:40;;;;;;;5.00;3.90;;;15.20;76.80;;;;;;5092356;28;20486;-68
2022/07/19 04:22:08;;;;;;;5.40;4.57;;;15.10;77.50;;;;;;5089450;28;20941;-67
2022/07/19 04:24:35;;;;;;;6.13;4.80;;;15.10;77.80;;;;;;5087677;28;20438;-66
2022/07/19 04:27:04;;;;;;;6.90;4.57;;;15.30;78.00;;;;;;5092309;28;20443;-66
2022/07/19 04:29:31;;;;;;;7.47;4.60;;;15.30;77.70;;;;;;5092230;28;20439;-66
2022/07/19 04:32:03;;;;;;;7.00;4.13;;;15.50;78.00;;;;;;5091428;28;20921;-66
2022/07/19 04:34:30;;;;;;;4.90;4.40;;;15.50;78.50;;;;;;5092224;28;20431;-66
2022/07/19 04:36:57;;;;;;;4.73;4.23;;;15.60;78.50;;;;;;5092319;28;20435;-65
2022/07/19 04:39:25;;;;;;;5.13;4.40;;;15.70;78.00;;;;;;5091447;28;20988;-66
2022/07/19 04:41:55;;;;;;;6.50;4.03;;;15.70;78.00;;;;;;5092218;28;20768;-66
2022/07/19 04:44:25;;;;;;;6.77;5.73;;;15.80;77.70;;;;;;5091529;28;20926;-65
2022/07/19 04:46:52;;;;;;;5.40;4.60;;;15.90;77.00;;;;;;5091612;28;20439;-66
2022/07/19 04:49:21;;;;;;;4.20;3.67;;;15.80;77.00;;;;;;5091847;28;20434;-68
2022/07/19 04:51:48;;;;;;;6.17;4.23;;;15.90;78.00;;;;;;5092016;28;20526;-66
2022/07/19 04:54:15;;;;;;;6.53;4.50;;;15.90;77.90;;;;;;5091413;28;20488;-66
2022/07/19 04:56:43;;;;;;;6.63;4.00;;;15.90;78.50;;;;;;5090839;28;20435;-66
2022/07/19 04:59:10;;;;;;;6.47;5.30;;;15.90;79.10;;;;;;5090629;28;20478;-66
2022/07/19 05:01:38;;;;;;;5.63;4.33;;;15.90;79.40;;;;;;5091760;28;20444;-71
2022/07/19 05:04:06;;;;;;;6.00;5.00;;;16.10;79.10;;;;;;5092036;28;20496;-66
2022/07/19 05:06:33;;;;;;;6.37;4.80;;;16.20;79.20;;;;;;5091369;28;20771;-66
2022/07/19 05:09:00;;;;;;;10.20;6.87;;;16.20;79.40;;;;;;5091874;28;20439;-66
2022/07/19 05:11:29;;;;;;;8.87;6.30;;;16.30;79.30;;;;;;5091443;28;20439;-66
2022/07/19 05:13:57;;;;;;;6.70;5.20;;;16.40;80.20;;;;;;5091000;28;20442;-68
2022/07/19 05:16:24;;;;;;;7.67;5.53;;;16.50;80.00;;;;;;5086444;28;20792;-66
2022/07/19 05:18:53;;;;;;;7.33;6.13;;;16.60;80.40;;;;;;5090539;28;20470;-66
2022/07/19 05:21:21;;;;;;;8.70;5.13;;;16.70;79.60;;;;;;5091408;28;20914;-66
2022/07/19 05:23:49;;;;;;;7.00;4.60;;;16.70;79.70;;;;;;5090452;28;20477;-70
2022/07/19 05:26:16;;;;;;;5.87;4.07;;;16.90;79.90;;;;;;5087150;28;20934;-71
2022/07/19 05:28:43;;;;;;;7.07;4.67;;;17.00;79.20;;;;;;5091361;28;20446;-68
2022/07/19 05:31:10;;;;;;;4.97;4.00;;;17.00;75.30;;;;;;5090759;28;20435;-66
2022/07/19 05:33:37;;;;;;;6.20;4.30;;;17.10;76.00;;;;;;5090066;28;20431;-66
2022/07/19 05:36:10;;;;;;;7.17;4.53;;;17.20;76.20;;;;;;5091079;28;20435;-66
2022/07/19 05:38:38;;;;;;;5.23;3.93;;;17.30;74.90;;;;;;5090284;28;20441;-65
2022/07/19 05:41:06;;;;;;;4.90;3.63;;;17.30;73.70;;;;;;5090459;28;20440;-66
2022/07/19 05:43:40;;;;;;;7.00;4.57;;;17.40;73.50;;;;;;5090582;28;20439;-67
2022/07/19 05:46:10;;;;;;;10.63;4.60;;;17.50;74.30;;;;;;5090762;28;20435;-66
2022/07/19 05:48:39;;;;;;;5.30;4.23;;;17.60;76.40;;;;;;5090286;28;20836;-66
2022/07/19 05:51:08;;;;;;;4.17;3.73;;;17.80;76.60;;;;;;5090671;28;20443;-66
2022/07/19 05:53:36;;;;;;;6.47;4.10;;;17.90;77.10;;;;;;5091136;28;20435;-66
2022/07/19 05:56:03;;;;;;;5.20;4.37;;;18.00;77.80;;;;;;5089605;28;20450;-66
2022/07/19 05:58:30;;;;;;;5.30;4.03;;;18.10;76.90;;;;;;5090424;28;20475;-66
2022/07/19 06:03:42;;;;;;;5.63;5.07;;;18.40;75.70;;;;;;5087014;28;20434;-66
2022/07/19 06:06:12;;;;;;;5.23;4.30;;;18.50;74.60;;;;;;5090517;28;21263;-66
2022/07/19 06:08:39;;;;;;;4.13;3.73;;;18.60;74.60;;;;;;5089898;28;20477;-67
2022/07/19 06:11:06;;;;;;;7.50;4.83;;;18.70;74.30;;;;;;5089721;28;20434;-66
2022/07/19 06:13:36;;;;;;;4.57;4.17;;;18.80;73.70;;;;;;5089932;28;20439;-66
2022/07/19 06:16:07;;;;;;;6.80;4.20;;;18.90;74.20;;;;;;5089917;28;20427;-65
2022/07/19 06:18:35;;;;;;;4.43;4.03;;;19.00;74.70;;;;;;5088164;28;20492;-74
2022/07/19 06:21:15;;;;;;;6.63;5.13;;;19.10;75.20;;;;;;5086679;28;20475;-66
2022/07/19 06:23:43;;;;;;;9.10;3.97;;;19.30;75.30;;;;;;5089766;28;20438;-66
2022/07/19 06:26:12;;;;;;;5.00;3.77;;;19.40;73.70;;;;;;5088861;28;20439;-68
2022/07/19 06:28:40;;;;;;;4.57;3.43;;;19.50;73.70;;;;;;5090067;28;20768;-66
2022/07/19 06:31:11;;;;;;;5.10;4.57;;;19.70;73.60;;;;;;5089461;28;20466;-67
2022/07/19 06:33:42;;;;;;;4.50;3.77;;;19.80;74.00;;;;;;5085808;28;20485;-66
2022/07/19 06:36:14;;;;;;;4.83;3.67;;;19.90;74.00;;;;;;5090593;28;20501;-66
2022/07/19 06:38:42;;;;;;;6.13;3.90;;;20.00;73.70;;;;;;5090205;28;21010;-66
2022/07/19 06:41:09;;;;;;;4.37;3.53;;;20.20;71.40;;;;;;5088319;28;20984;-66
2022/07/19 06:43:39;;;;;;;6.87;3.80;;;20.30;70.80;;;;;;5091415;28;20467;-66
2022/07/19 06:46:06;;;;;;;4.40;3.97;;;20.40;71.00;;;;;;5094389;28;20431;-66
2022/07/19 06:48:34;;;;;;;4.03;3.00;;;20.50;71.10;;;;;;5096433;28;20474;-66
2022/07/19 06:51:01;;;;;;;3.63;3.30;;;20.70;69.10;;;;;;5096682;28;20445;-65
2022/07/19 06:53:29;;;;;;;10.37;3.37;;;20.80;68.20;;;;;;5095962;28;20466;-65
2022/07/19 06:55:56;;;;;;;4.70;3.20;;;20.90;67.30;;;;;;5096198;28;20474;-64
2022/07/19 06:58:23;;;;;;;4.10;3.20;;;21.00;67.30;;;;;;5096175;28;20550;-64
2022/07/19 07:00:55;;;;;;;4.50;3.20;;;21.10;68.20;;;;;;5095159;28;20541;-64
2022/07/19 07:03:22;;;;;;;4.87;3.60;;;21.30;68.70;;;;;;5096178;28;20849;-64
2022/07/19 07:05:49;;;;;;;5.23;2.67;;;21.40;68.40;;;;;;5095972;28;20509;-64
2022/07/19 07:08:17;;;;;;;3.90;3.20;;;21.50;67.80;;;;;;5095923;28;20474;-65
2022/07/19 07:10:46;;;;;;;4.80;3.37;;;21.60;67.60;;;;;;5095801;28;20865;-64
2022/07/19 07:13:13;;;;;;;4.37;3.30;;;21.80;67.50;;;;;;5095640;28;20480;-66
2022/07/19 07:15:42;;;;;;;4.00;3.50;;;21.90;68.20;;;;;;5096237;28;20805;-64
2022/07/19 07:18:09;;;;;;;5.07;3.37;;;22.00;66.80;;;;;;5095764;28;20489;-65
2022/07/19 07:20:36;;;;;;;3.83;2.73;;;22.20;66.20;;;;;;5095902;28;20510;-64
2022/07/19 07:23:04;;;;;;;8.73;3.53;;;22.30;66.00;;;;;;5095209;28;20445;-65
2022/07/19 07:25:31;;;;;;;4.00;3.10;;;22.40;65.30;;;;;;5095737;28;20469;-64
2022/07/19 07:28:00;;;;;;;5.10;3.20;;;22.50;65.90;;;;;;5095771;28;20504;-64
2022/07/19 07:30:27;;;;;;;3.80;2.90;;;22.70;67.00;;;;;;5095487;28;20472;-64
2022/07/19 07:32:54;;;;;;;4.47;2.97;;;22.80;64.50;;;;;;5095746;28;20496;-64
2022/07/19 07:35:21;;;;;;;4.00;3.00;;;22.90;65.30;;;;;;5095704;28;20913;-64
2022/07/19 07:37:48;;;;;;;6.97;3.40;;;23.10;66.40;;;;;;5095686;28;20527;-64
2022/07/19 07:40:15;;;;;;;4.83;3.10;;;23.30;66.00;;;;;;5095546;28;20930;-64
2022/07/19 07:42:42;;;;;;;4.90;3.63;;;23.40;63.90;;;;;;5095527;28;20471;-64
2022/07/19 07:45:11;;;;;;;6.20;3.50;;;23.50;63.90;;;;;;5095124;28;20499;-65
2022/07/19 07:47:38;;;;;;;4.83;3.00;;;23.70;64.30;;;;;;5095142;28;20500;-65
2022/07/19 07:50:07;;;;;;;5.20;3.40;;;23.80;63.70;;;;;;5095474;28;20446;-66
2022/07/19 07:52:34;;;;;;;5.60;2.90;;;24.00;62.90;;;;;;5094987;28;20489;-65
2022/07/19 07:55:02;;;;;;;5.23;3.60;;;24.10;62.80;;;;;;5095403;28;20482;-65
2022/07/19 07:57:29;;;;;;;5.43;2.87;;;24.20;62.80;;;;;;5094780;28;20430;-64
2022/07/19 07:59:58;;;;;;;5.30;2.60;;;24.40;62.00;;;;;;5095185;28;20506;-65
2022/07/19 08:02:26;;;;;;;6.87;3.50;;;24.50;62.30;;;;;;5095201;28;20470;-65
2022/07/19 08:04:53;;;;;;;6.43;4.00;;;24.70;62.60;;;;;;5094776;28;21001;-65
2022/07/19 08:07:20;;;;;;;5.00;3.43;;;24.80;60.80;;;;;;5095058;28;20448;-65
2022/07/19 08:09:47;;;;;;;4.60;3.10;;;25.00;61.40;;;;;;5094787;28;20510;-64
2022/07/19 08:12:14;;;;;;;4.20;3.07;;;25.10;61.00;;;;;;5094616;28;20511;-65
2022/07/19 08:14:41;;;;;;;4.20;2.77;;;25.30;60.00;;;;;;5094921;28;20475;-65
2022/07/19 08:17:08;;;;;;;5.27;3.57;;;25.40;59.50;;;;;;5094403;28;20526;-65
2022/07/19 08:19:37;;;;;;;3.13;2.33;;;25.60;60.10;;;;;;5094848;28;20482;-65
2022/07/19 08:22:04;;;;;;;4.70;2.37;;;25.70;59.40;;;;;;5094751;28;20520;-65
2022/07/19 08:24:31;;;;;;;3.00;2.13;;;25.90;58.50;;;;;;5094694;28;20474;-65
2022/07/19 08:26:58;;;;;;;4.60;2.30;;;26.00;56.20;;;;;;5094107;28;20481;-65
2022/07/19 08:29:25;;;;;;;3.93;2.40;;;26.10;53.20;;;;;;5094564;28;20542;-65
2022/07/19 08:31:52;;;;;;;3.90;1.93;;;26.20;51.50;;;;;;5094250;28;20431;-65
2022/07/19 08:34:20;;;;;;;3.20;2.30;;;26.40;52.30;;;;;;5094253;28;20434;-65
2022/07/19 08:36:49;;;;;;;4.90;2.20;;;26.50;52.90;;;;;;5094515;28;20937;-65
2022/07/19 08:39:16;;;;;;;7.10;2.40;;;26.60;51.20;;;;;;5094486;28;20489;-65
2022/07/19 08:41:45;;;;;;;2.80;2.10;;;26.80;51.60;;;;;;5093578;28;20529;-65
2022/07/19 08:44:12;;;;;;;6.53;2.50;;;26.90;49.90;;;;;;5094240;28;20442;-65
2022/07/19 08:46:41;;;;;;;2.70;1.90;;;27.00;51.60;;;;;;5094161;28;20435;-65
2022/07/19 08:49:09;;;;;;;3.50;1.97;;;27.10;50.90;;;;;;5094312;28;20810;-66
2022/07/19 08:51:36;;;;;;;4.70;2.10;;;27.30;49.80;;;;;;5094161;28;20521;-66
2022/07/19 08:54:05;;;;;;;7.83;1.83;;;27.40;49.20;;;;;;5093885;28;20466;-65
2022/07/19 08:59:16;;;;;;;3.80;1.63;;;27.60;48.90;;;;;;5093932;28;20828;-65
2022/07/19 09:01:43;;;;;;;3.73;1.93;;;27.80;46.30;;;;;;5093433;28;21069;-65
2022/07/19 09:04:15;;;;;;;2.90;1.63;;;27.90;46.60;;;;;;5093864;28;20423;-66
2022/07/19 09:06:45;;;;;;;3.80;1.53;;;27.90;46.10;;;;;;5093967;28;20474;-65
2022/07/19 09:09:15;;;;;;;3.50;2.30;;;28.10;45.30;;;;;;5093368;28;20528;-65
2022/07/19 09:11:48;;;;;;;2.97;2.00;;;28.20;44.20;;;;;;5093635;28;20527;-65
2022/07/19 09:14:17;;;;;;;3.83;1.90;;;28.30;44.40;;;;;;5093899;28;20986;-65
2022/07/19 09:16:52;;;;;;;3.40;2.17;;;28.40;44.50;;;;;;5093752;28;20526;-65
2022/07/19 09:19:20;;;;;;;4.60;2.10;;;28.50;45.60;;;;;;5093446;28;20516;-65
2022/07/19 09:22:08;;;;;;;2.90;2.07;;;28.60;44.30;;;;;;5093444;28;21060;-65
2022/07/19 09:24:38;;;;;;;5.30;2.00;;;28.70;45.50;;;;;;5088853;28;20557;-66
2022/07/19 09:27:07;;;;;;;4.23;2.17;;;28.90;44.40;;;;;;5093557;28;20478;-65
2022/07/19 09:29:36;;;;;;;3.27;1.90;;;29.00;45.30;;;;;;5093598;28;20518;-65
2022/07/19 09:32:09;;;;;;;4.33;1.80;;;29.10;44.00;;;;;;5093559;28;20522;-66
2022/07/19 09:34:39;;;;;;;3.23;1.73;;;29.20;43.60;;;;;;5093403;28;20439;-66
2022/07/19 09:37:14;;;;;;;3.30;2.27;;;29.40;43.60;;;;;;5093109;28;20475;-66
2022/07/19 09:39:45;;;;;;;2.93;1.70;;;29.50;43.00;;;;;;5093490;28;20521;-66
2022/07/19 09:42:12;;;;;;;3.47;1.80;;;29.60;40.40;;;;;;5093237;28;20486;-65
2022/07/19 09:44:39;;;;;;;3.90;2.17;;;29.70;40.00;;;;;;5093211;28;20439;-65
2022/07/19 09:47:07;;;;;;;5.10;1.73;;;29.70;39.10;;;;;;5093160;28;20949;-66
2022/07/19 09:49:39;;;;;;;3.07;2.33;;;29.80;41.00;;;;;;5093367;28;20471;-66
2022/07/19 09:52:06;;;;;;;4.20;1.93;;;29.90;41.50;;;;;;5093327;28;20477;-67
2022/07/19 09:54:33;;;;;;;2.90;1.67;;;30.00;41.60;;;;;;5093344;28;20518;-66
2022/07/19 09:57:02;;;;;;;2.90;1.60;;;30.10;39.60;;;;;;5093090;28;20522;-66
2022/07/19 09:59:29;;;;;;;5.07;2.00;;;30.20;39.40;;;;;;5093112;28;20969;-66
2022/07/19 10:01:58;;;;;;;2.83;1.60;;;30.30;39.10;;;;;;5092956;28;21030;-66
2022/07/19 10:04:27;;;;;;;7.57;1.60;;;30.40;38.80;;;;;;5092672;28;20442;-67
2022/07/19 10:06:54;;;;;;;2.23;1.40;;;30.40;38.30;;;;;;5093168;28;20475;-65
2022/07/19 10:09:23;;;;;;;2.40;1.70;;;30.60;36.20;;;;;;5093045;28;20470;-66
2022/07/19 10:11:53;;;;;;;5.80;2.03;;;30.70;35.50;;;;;;5092147;28;20467;-66
2022/07/19 10:14:21;;;;;;;2.80;1.70;;;30.70;35.40;;;;;;5092824;28;20439;-66
2022/07/19 10:17:23;;;;;;;5.60;1.73;;;30.70;35.50;;;;;;5092922;28;20612;-66
2022/07/19 10:19:51;;;;;;;2.93;1.50;;;30.80;36.40;;;;;;5093529;28;20510;-66
2022/07/19 10:22:21;;;;;;;7.00;1.77;;;30.80;35.00;;;;;;5097113;28;20479;-66
2022/07/19 10:24:51;;;;;;;3.00;2.13;;;30.90;34.30;;;;;;5097073;28;20439;-66
2022/07/19 10:27:35;;;;;;;4.10;1.97;;;30.90;35.40;;;;;;5096506;28;20485;-66
2022/07/19 10:30:26;;;;;;;5.23;2.00;;;31.00;36.20;;;;;;5097079;28;20442;-66
2022/07/19 10:32:56;;;;;;;4.73;1.63;;;31.10;36.80;;;;;;5096375;28;20442;-66
2022/07/19 10:35:28;;;;;;;2.77;1.87;;;31.20;34.40;;;;;;5096609;28;20427;-66
2022/07/19 10:38:06;;;;;;;6.13;1.73;;;31.20;32.40;;;;;;5096928;28;20856;-66
2022/07/19 10:40:40;;;;;;;4.30;1.47;;;31.30;34.30;;;;;;5096527;28;20478;-66
2022/07/19 10:43:08;;;;;;;4.00;1.87;;;31.30;34.70;;;;;;5096597;28;20917;-66
2022/07/19 10:45:38;;;;;;;3.40;2.10;;;31.30;32.80;;;;;;5096614;28;20434;-67
2022/07/19 10:48:11;;;;;;;4.27;2.17;;;31.40;34.70;;;;;;5096226;28;20518;-67
2022/07/19 10:51:05;;;;;;;4.40;2.17;;;31.40;33.50;;;;;;5096381;28;20455;-66
2022/07/19 10:54:10;;;;;;;5.73;2.20;;;31.50;35.70;;;;;;5096582;28;20500;-66
2022/07/19 10:56:41;;;;;;;3.00;1.70;;;31.60;33.40;;;;;;5096150;28;20431;-66
2022/07/19 10:59:10;;;;;;;3.17;2.13;;;31.60;33.80;;;;;;5096273;28;20805;-66
2022/07/19 11:01:55;;;;;;;7.37;2.10;;;31.70;33.70;;;;;;5094917;28;20470;-66
2022/07/19 11:04:25;;;;;;;3.43;1.90;;;31.80;33.50;;;;;;5096305;28;20445;-66
2022/07/19 11:07:09;;;;;;;3.80;1.90;;;31.80;32.90;;;;;;5092919;28;20545;-71
2022/07/19 11:09:44;;;;;;;3.70;2.30;;;31.80;31.80;;;;;;5082173;28;20463;-66
2022/07/19 11:12:21;;;;;;;6.13;2.07;;;31.80;33.20;;;;;;5095482;28;20445;-66
2022/07/19 11:14:48;;;;;;;2.77;2.07;;;31.80;33.50;;;;;;5095539;28;20691;-66
2022/07/19 11:17:17;;;;;;;3.50;1.80;;;31.90;33.20;;;;;;5095730;28;20526;-66
2022/07/19 11:20:02;;;;;;;3.30;1.93;;;31.90;32.90;;;;;;5093374;28;20459;-66
2022/07/19 11:22:39;;;;;;;4.70;2.00;;;32.00;33.60;;;;;;5094724;28;20486;-68
2022/07/19 11:25:08;;;;;;;7.37;2.07;;;32.00;32.20;;;;;;5095119;28;20596;-66
2022/07/19 11:27:35;;;;;;;6.83;2.37;;;32.10;34.00;;;;;;5095120;28;20467;-67
2022/07/19 11:30:05;;;;;;;3.97;2.30;;;32.10;33.00;;;;;;5094351;28;20975;-66
2022/07/19 11:32:34;;;;;;;5.13;2.00;;;32.10;32.30;;;;;;5094468;28;20772;-68
2022/07/19 11:35:04;;;;;;;4.13;1.83;;;32.20;31.40;;;;;;5092964;28;20522;-66
2022/07/19 11:37:32;;;;;;;3.60;1.87;;;32.20;31.70;;;;;;5094211;28;20474;-66
2022/07/19 11:40:00;;;;;;;3.40;1.90;;;32.20;33.90;;;;;;5095393;28;20514;-67
2022/07/19 11:42:35;;;;;;;4.10;2.03;;;32.30;33.60;;;;;;5095355;28;20522;-66
2022/07/19 11:45:13;;;;;;;4.90;1.90;;;32.30;32.20;;;;;;5075426;28;20526;-67
2022/07/19 11:47:47;;;;;;;2.97;2.00;;;32.30;34.70;;;;;;5080755;28;20510;-66
2022/07/19 11:50:15;;;;;;;4.20;2.40;;;32.30;33.80;;;;;;5093760;28;20438;-66
2022/07/19 11:52:47;;;;;;;3.73;2.00;;;32.40;32.80;;;;;;5094131;28;20848;-66
2022/07/19 11:55:15;;;;;;;4.03;1.87;;;32.50;32.80;;;;;;5095257;28;20430;-67
2022/07/19 11:57:42;;;;;;;6.50;1.87;;;32.50;33.20;;;;;;5094750;28;20447;-67
2022/07/19 12:00:10;;;;;;;4.23;1.83;;;32.50;32.10;;;;;;5095295;28;20845;-66
2022/07/19 12:03:02;;;;;;;3.27;1.93;;;32.50;33.70;;;;;;5094911;28;20991;-66
2022/07/19 12:05:30;;;;;;;3.63;2.00;;;32.60;33.20;;;;;;5095086;28;20804;-66
2022/07/19 12:07:59;;;;;;;3.73;1.90;;;32.60;33.80;;;;;;5094981;28;20470;-66
2022/07/19 12:10:43;;;;;;;3.07;1.87;;;32.70;32.80;;;;;;5095081;28;20838;-66
2022/07/19 12:13:12;;;;;;;4.30;1.93;;;32.70;34.30;;;;;;5094566;28;20527;-67
2022/07/19 12:15:46;;;;;;;3.60;2.50;;;32.90;34.50;;;;;;5095137;28;20443;-67
2022/07/19 12:18:16;;;;;;;7.50;2.07;;;32.90;33.80;;;;;;5094689;28;20437;-66
2022/07/19 12:20:44;;;;;;;4.43;2.50;;;32.90;32.30;;;;;;5094833;28;20439;-66
2022/07/19 12:23:17;;;;;;;5.53;2.40;;;32.90;33.40;;;;;;5094722;28;20777;-67
2022/07/19 12:25:44;;;;;;;6.37;2.30;;;32.90;32.30;;;;;;5094367;28;20518;-67
2022/07/19 12:28:11;;;;;;;2.80;2.30;;;32.90;32.80;;;;;;5094593;28;20435;-66
2022/07/19 12:30:38;;;;;;;4.97;2.30;;;32.90;33.70;;;;;;5094545;28;20471;-66
2022/07/19 12:33:11;;;;;;;4.90;2.20;;;32.80;32.20;;;;;;5094385;28;20473;-66
2022/07/19 12:35:47;;;;;;;3.80;2.33;;;32.80;32.40;;;;;;5094397;28;20460;-66
2022/07/19 12:38:15;;;;;;;3.57;2.20;;;32.80;31.20;;;;;;5094500;28;20518;-66
2022/07/19 12:40:43;;;;;;;4.30;2.60;;;32.80;33.10;;;;;;5094610;28;20473;-66
2022/07/19 12:43:12;;;;;;;9.80;2.97;;;32.80;33.40;;;;;;5093214;28;20518;-67
2022/07/19 12:45:43;;;;;;;4.67;2.20;;;32.80;33.50;;;;;;5093956;28;20443;-68
2022/07/19 12:48:11;;;;;;;6.10;2.37;;;32.80;32.90;;;;;;5094354;28;20431;-71
2022/07/19 12:50:41;;;;;;;4.10;2.03;;;32.80;32.90;;;;;;5094423;28;20835;-66
2022/07/19 12:53:13;;;;;;;3.30;2.10;;;32.80;31.70;;;;;;5094361;28;20790;-66
2022/07/19 12:55:43;;;;;;;4.30;2.47;;;32.70;32.70;;;;;;5094227;28;20529;-66
2022/07/19 12:58:10;;;;;;;3.30;2.27;;;32.70;31.90;;;;;;5093498;28;20473;-66
2022/07/19 13:00:39;;;;;;;5.00;2.60;;;32.70;31.50;;;;;;5094175;28;20474;-67
2022/07/19 13:03:06;;;;;;;4.50;2.30;;;32.70;31.50;;;;;;5093878;28;20532;-66
2022/07/19 13:05:34;;;;;;;4.00;2.50;;;32.70;31.20;;;;;;5094235;28;20482;-67